createdAt,value
2023-01-01T00:03:34.030Z,101089.47
2023-01-01T00:08:37.232Z,101094.81
2023-01-01T00:13:42.301Z,101097.59
2023-01-01T00:18:45.144Z,101101.72
2023-01-01T00:23:48.267Z,101097.81
2023-01-01T00:28:51.099Z,101085.03
2023-01-01T00:33:55.790Z,101094.63
2023-01-01T00:38:58.810Z,101092.22
2023-01-01T00:44:01.817Z,101081.84
2023-01-01T00:49:04.570Z,101097.78
2023-01-01T00:54:07.760Z,101088.41
2023-01-01T00:59:10.790Z,101095.06
2023-01-01T01:04:14.249Z,101097.41
2023-01-01T01:09:17.105Z,101099.84
2023-01-01T01:14:20.247Z,101098.72
2023-01-01T01:19:25.589Z,101089.75
2023-01-01T01:24:28.586Z,101087.84
2023-01-01T01:29:31.498Z,101097.41
2023-01-01T01:34:34.969Z,101088.06
2023-01-01T01:39:38.982Z,101093.59
2023-01-01T01:45:06.858Z,101094.22
2023-01-01T01:50:27.531Z,101091.59
2023-01-01T01:55:33.915Z,101088.94
2023-01-01T02:00:37.074Z,101077.63
2023-01-01T02:05:41.529Z,101088.72
2023-01-01T02:10:44.525Z,101082.25
2023-01-01T02:16:20.784Z,101100.50
2023-01-01T02:21:56.817Z,101104.44
2023-01-01T02:27:21.078Z,101102.56
2023-01-01T02:32:46.747Z,101109.22
2023-01-01T02:37:55.771Z,101129.69
2023-01-01T02:43:01.728Z,101110.75
2023-01-01T02:48:07.634Z,101104.25
2023-01-01T02:53:33.663Z,101104.72
2023-01-01T02:59:06.007Z,101097.22
2023-01-01T03:04:46.325Z,101111.75
2023-01-01T03:10:15.461Z,101111.47
2023-01-01T03:15:49.418Z,101120.94
2023-01-01T03:20:59.708Z,101106.59
2023-01-01T03:26:11.249Z,101094.06
2023-01-01T03:31:21.676Z,101088.22
2023-01-01T03:36:34.048Z,101079.13
2023-01-01T03:42:01.423Z,101090.84
2023-01-01T03:47:06.976Z,101086.91
2023-01-01T03:52:35.854Z,101086.34
2023-01-01T03:58:24.057Z,101092.03
2023-01-01T04:03:31.224Z,101087.97
2023-01-01T04:08:35.982Z,101078.00
2023-01-01T04:13:48.542Z,101072.38
2023-01-01T04:18:51.557Z,101085.09
2023-01-01T04:23:54.463Z,101085.75
2023-01-01T04:28:57.266Z,101090.06
2023-01-01T04:34:00.268Z,101089.41
2023-01-01T04:39:04.004Z,101094.66
2023-01-01T04:44:07.056Z,101100.97
2023-01-01T04:49:09.955Z,101100.41
2023-01-01T04:54:12.980Z,101102.38
2023-01-01T04:59:15.930Z,101101.19
2023-01-01T05:04:18.790Z,101098.13
2023-01-01T05:09:22.150Z,101101.69
2023-01-01T05:14:25.029Z,101107.78
2023-01-01T05:19:27.964Z,101104.31
2023-01-01T05:24:31.531Z,101096.34
2023-01-01T05:29:34.433Z,101093.72
2023-01-01T05:39:39.584Z,101109.19
2023-01-01T05:44:42.428Z,101113.38
2023-01-01T05:49:45.759Z,101115.84
2023-01-01T05:54:48.717Z,101121.72
2023-01-01T05:59:52.751Z,101121.59
2023-01-01T06:04:55.653Z,101144.22
2023-01-01T06:09:58.547Z,101153.06
2023-01-01T06:15:01.257Z,101175.84
2023-01-01T06:20:04.543Z,101173.22
2023-01-01T06:25:08.678Z,101182.50
2023-01-01T06:30:11.803Z,101178.16
2023-01-01T06:35:14.842Z,101171.06
2023-01-01T06:40:17.789Z,101170.09
2023-01-01T06:45:20.780Z,101166.53
2023-01-01T06:50:23.694Z,101164.84
2023-01-01T06:55:26.596Z,101167.38
2023-01-01T07:00:29.560Z,101175.47
2023-01-01T07:05:32.508Z,101182.50
2023-01-01T07:10:35.585Z,101173.84
2023-01-01T07:15:38.559Z,101176.47
2023-01-01T07:20:42.428Z,101181.56
2023-01-01T07:25:45.546Z,101186.03
2023-01-01T07:30:49.394Z,101195.63
2023-01-01T07:35:52.398Z,101186.59
2023-01-01T07:40:55.817Z,101188.00
2023-01-01T07:46:02.144Z,101198.91
2023-01-01T07:51:05.394Z,101212.13
2023-01-01T07:56:08.858Z,101219.91
2023-01-01T08:01:14.741Z,101234.66
2023-01-01T08:06:17.860Z,101228.06
2023-01-01T08:11:21.173Z,101238.09
2023-01-01T08:16:24.095Z,101235.75
2023-01-01T08:21:27.303Z,101247.44
2023-01-01T08:26:34.399Z,101247.88
2023-01-01T08:31:37.349Z,101258.84
2023-01-01T08:36:40.811Z,101262.97
2023-01-01T08:41:43.919Z,101265.22
2023-01-01T08:46:47.116Z,101268.69
2023-01-01T08:51:50.265Z,101257.66
2023-01-01T08:56:53.225Z,101258.31
2023-01-01T09:01:56.420Z,101259.81
2023-01-01T09:06:59.498Z,101269.09
2023-01-01T09:12:08.387Z,101269.63
2023-01-01T09:17:11.290Z,101267.44
2023-01-01T09:22:14.439Z,101263.88
2023-01-01T09:27:17.390Z,101254.09
2023-01-01T09:32:20.339Z,101261.81
2023-01-01T09:37:24.310Z,101257.16
2023-01-01T09:42:48.590Z,101252.56
2023-01-01T09:47:56.438Z,101252.16
2023-01-01T09:53:08.016Z,101269.22
2023-01-01T09:58:11.859Z,101258.16
2023-01-01T10:03:32.773Z,101258.69
2023-01-01T10:08:47.372Z,101271.03
2023-01-01T10:13:51.994Z,101271.03
2023-01-01T10:19:50.745Z,101265.91
2023-01-01T10:25:06.306Z,101259.47
2023-01-01T10:30:29.594Z,101243.94
2023-01-01T10:35:40.451Z,101245.38
2023-01-01T10:40:43.291Z,101242.72
2023-01-01T10:45:53.649Z,101240.84
2023-01-01T10:51:14.436Z,101223.94
2023-01-01T10:56:21.647Z,101226.53
2023-01-01T11:01:33.877Z,101198.41
2023-01-01T11:06:47.728Z,101177.09
2023-01-01T11:12:09.558Z,101167.31
2023-01-01T11:17:32.776Z,101168.25
2023-01-01T11:22:51.650Z,101175.25
2023-01-01T11:28:21.979Z,101179.22
2023-01-01T11:33:25.912Z,101167.06
2023-01-01T11:38:30.569Z,101161.78
2023-01-01T11:43:46.773Z,101175.72
2023-01-01T11:48:50.492Z,101162.84
2023-01-01T11:54:11.850Z,101153.59
2023-01-01T11:59:18.728Z,101153.59
2023-01-01T12:04:56.204Z,101147.50
2023-01-01T12:10:13.985Z,101140.66
2023-01-01T12:15:28.892Z,101143.66
2023-01-01T12:20:59.724Z,101133.94
2023-01-01T12:26:08.521Z,101132.63
2023-01-01T12:31:49.174Z,101126.84
2023-01-01T12:37:10.556Z,101129.34
2023-01-01T12:42:25.141Z,101134.97
2023-01-01T12:47:49.267Z,101131.72
2023-01-01T12:53:28.760Z,101136.31
2023-01-01T12:58:44.067Z,101130.31
2023-01-01T13:03:56.826Z,101142.69
2023-01-01T13:09:15.318Z,101143.53
2023-01-01T13:14:18.602Z,101140.19
2023-01-01T13:19:31.932Z,101133.47
2023-01-01T13:24:34.910Z,101138.28
2023-01-01T13:29:45.250Z,101144.16
2023-01-01T13:35:02.836Z,101138.97
2023-01-01T13:40:11.766Z,101153.59
2023-01-01T13:52:05.290Z,101179.00
2023-01-01T13:57:42.960Z,101176.97
2023-01-01T14:02:58.818Z,101183.53
2023-01-01T14:08:02.139Z,101183.53
2023-01-01T14:13:10.669Z,101177.41
2023-01-01T14:18:18.217Z,101180.28
2023-01-01T14:23:32.653Z,101174.91
2023-01-01T14:28:36.887Z,101185.47
2023-01-01T14:33:40.363Z,101181.97
2023-01-01T14:38:46.471Z,101190.00
2023-01-01T14:43:53.610Z,101185.34
2023-01-01T14:49:08.663Z,101195.66
2023-01-01T14:54:19.932Z,101177.78
2023-01-01T14:59:33.019Z,101174.06
2023-01-01T15:04:36.200Z,101179.97
2023-01-01T15:09:38.897Z,101187.06
2023-01-01T15:14:45.777Z,101180.69
2023-01-01T15:20:06.415Z,101197.59
2023-01-01T15:25:16.127Z,101203.09
2023-01-01T15:30:27.484Z,101197.81
2023-01-01T15:35:33.362Z,101210.94
2023-01-01T15:40:36.371Z,101206.50
2023-01-01T15:45:42.014Z,101213.19
2023-01-01T15:50:50.971Z,101207.47
2023-01-01T15:55:56.791Z,101228.47
2023-01-01T16:01:04.007Z,101226.44
2023-01-01T16:06:07.940Z,101227.19
2023-01-01T16:11:10.863Z,101219.84
2023-01-01T16:16:32.755Z,101230.78
2023-01-01T16:21:36.522Z,101225.03
2023-01-01T16:26:39.558Z,101235.50
2023-01-01T16:31:43.999Z,101237.91
2023-01-01T16:36:47.896Z,101232.28
2023-01-01T16:41:50.803Z,101246.06
2023-01-01T16:46:53.880Z,101243.22
2023-01-01T16:51:56.712Z,101244.78
2023-01-01T16:56:59.806Z,101246.56
2023-01-01T17:02:02.719Z,101242.13
2023-01-01T17:07:05.671Z,101244.88
2023-01-01T17:12:08.616Z,101264.97
2023-01-01T17:17:11.539Z,101256.16
2023-01-01T17:22:14.399Z,101252.59
2023-01-01T17:27:17.279Z,101259.56
2023-01-01T17:32:20.220Z,101250.78
2023-01-01T17:37:23.149Z,101256.78
2023-01-01T17:42:26.822Z,101245.13
2023-01-01T17:47:33.228Z,101253.81
2023-01-01T17:52:36.573Z,101253.47
2023-01-01T17:57:39.548Z,101265.72
2023-01-01T18:02:42.603Z,101258.63
2023-01-01T18:07:45.846Z,101268.09
2023-01-01T18:12:48.762Z,101274.97
2023-01-01T18:17:51.760Z,101271.47
2023-01-01T18:22:54.709Z,101265.94
2023-01-01T18:27:57.938Z,101279.03
2023-01-01T18:33:00.986Z,101279.03
2023-01-01T18:38:03.943Z,101270.88
2023-01-01T18:43:15.221Z,101268.94
2023-01-01T18:48:21.596Z,101272.34
2023-01-01T18:53:24.494Z,101278.56
2023-01-01T18:58:28.075Z,101269.78
2023-01-01T19:03:37.480Z,101263.09
2023-01-01T19:08:44.323Z,101275.47
2023-01-01T19:13:47.336Z,101261.50
2023-01-01T19:18:51.700Z,101264.88
2023-01-01T19:23:58.734Z,101255.16
2023-01-01T19:29:21.568Z,101251.41
2023-01-01T19:34:25.598Z,101251.53
2023-01-01T19:39:29.234Z,101241.09
2023-01-01T19:44:34.342Z,101238.69
2023-01-01T19:49:37.867Z,101231.22
2023-01-01T19:54:41.429Z,101240.34
2023-01-01T19:59:44.339Z,101243.25
2023-01-01T20:04:47.345Z,101242.03
2023-01-01T20:09:50.455Z,101247.53
2023-01-01T20:14:53.877Z,101242.72
2023-01-01T20:19:57.145Z,101247.28
2023-01-01T20:25:00.188Z,101237.91
2023-01-01T20:30:03.295Z,101244.63
2023-01-01T20:35:06.865Z,101253.00
2023-01-01T20:40:11.822Z,101245.28
2023-01-01T20:45:15.327Z,101240.13
2023-01-01T20:50:18.270Z,101240.38
2023-01-01T20:55:21.407Z,101232.69
2023-01-01T21:00:24.295Z,101234.72
2023-01-01T21:05:27.167Z,101233.25
2023-01-01T21:10:30.559Z,101224.84
2023-01-01T21:15:33.617Z,101225.31
2023-01-01T21:20:40.720Z,101234.63
2023-01-01T21:25:52.040Z,101240.56
2023-01-01T21:30:57.475Z,101236.91
2023-01-01T21:36:16.295Z,101237.81
2023-01-01T21:41:24.128Z,101237.38
2023-01-01T21:46:36.273Z,101237.00
2023-01-01T21:52:01.327Z,101240.06
2023-01-01T21:57:23.495Z,101245.78
2023-01-01T22:02:38.459Z,101243.25
2023-01-01T22:08:00.790Z,101240.75
2023-01-01T22:13:16.902Z,101233.03
2023-01-01T22:18:30.745Z,101223.69
2023-01-01T22:23:41.963Z,101215.47
2023-01-01T22:28:47.290Z,101222.25
2023-01-01T22:33:53.214Z,101217.84
2023-01-01T22:39:13.630Z,101212.59
2023-01-01T22:44:16.337Z,101209.94
2023-01-01T22:49:24.307Z,101197.53
2023-01-01T22:54:27.261Z,101194.69
2023-01-01T22:59:30.990Z,101189.97
2023-01-01T23:04:35.197Z,101186.47
2023-01-01T23:09:38.064Z,101190.78
2023-01-01T23:14:59.654Z,101183.78
2023-01-01T23:20:03.539Z,101182.75
2023-01-01T23:25:10.303Z,101182.22
2023-01-01T23:30:13.998Z,101182.50
2023-01-01T23:35:17.273Z,101177.13
2023-01-01T23:40:20.191Z,101173.38
2023-01-01T23:45:23.085Z,101165.59
2023-01-01T23:50:26.126Z,101176.97
2023-01-01T23:55:30.911Z,101169.63
